sensor_id;sensor_type;location;lat;lon;timestamp;P1;durP1;ratioP1;P2;durP2;ratioP2
10166;SDS011;62970;53.130;8.244;2023-10-19T08:10:57;4.30;;;3.90;;
10166;SDS011;62970;53.130;8.244;2023-10-19T08:13:27;4.33;;;3.93;;
10166;SDS011;62970;53.130;8.244;2023-10-19T08:15:57;4.77;;;4.37;;
10166;SDS011;62970;53.130;8.244;2023-10-19T08:18:26;5.17;;;4.73;;
10166;SDS011;62970;53.130;8.244;2023-10-19T08:20:55;4.73;;;4.33;;
10166;SDS011;62970;53.130;8.244;2023-10-19T08:23:24;4.37;;;4.00;;
10166;SDS011;62970;53.130;8.244;2023-10-19T08:25:53;4.30;;;4.00;;
10166;SDS011;62970;53.130;8.244;2023-10-19T08:28:26;4.33;;;3.93;;
10166;SDS011;62970;53.130;8.244;2023-10-19T08:30:55;4.17;;;3.80;;
10166;SDS011;62970;53.130;8.244;2023-10-19T08:33:25;4.93;;;4.53;;
10166;SDS011;62970;53.130;8.244;2023-10-19T08:35:59;4.50;;;4.10;;
10166;SDS011;62970;53.130;8.244;2023-10-19T08:38:28;4.80;;;4.40;;
10166;SDS011;62970;53.130;8.244;2023-10-19T08:40:58;4.43;;;4.03;;
10166;SDS011;62970;53.130;8.244;2023-10-19T08:43:31;4.10;;;3.80;;
10166;SDS011;62970;53.130;8.244;2023-10-19T08:46:04;3.90;;;3.60;;
10166;SDS011;62970;53.130;8.244;2023-10-19T08:48:35;4.07;;;3.77;;
10166;SDS011;62970;53.130;8.244;2023-10-19T08:51:08;3.73;;;3.43;;
10166;SDS011;62970;53.130;8.244;2023-10-19T08:53:39;4.50;;;4.10;;
10166;SDS011;62970;53.130;8.244;2023-10-19T08:56:09;4.00;;;3.60;;
10166;SDS011;62970;53.130;8.244;2023-10-19T08:58:42;3.97;;;3.57;;
10166;SDS011;62970;53.130;8.244;2023-10-19T09:01:12;3.80;;;3.50;;
10166;SDS011;62970;53.130;8.244;2023-10-19T09:03:43;3.90;;;3.60;;
10166;SDS011;62970;53.130;8.244;2023-10-19T09:06:13;3.90;;;3.60;;
10166;SDS011;62970;53.130;8.244;2023-10-19T09:08:42;3.83;;;3.53;;
10166;SDS011;62970;53.130;8.244;2023-10-19T09:11:15;3.80;;;3.50;;
10166;SDS011;62970;53.130;8.244;2023-10-19T09:13:48;3.63;;;3.33;;
10166;SDS011;62970;53.130;8.244;2023-10-19T09:16:20;3.70;;;3.40;;
10166;SDS011;62970;53.130;8.244;2023-10-19T09:18:53;3.63;;;3.33;;
10166;SDS011;62970;53.130;8.244;2023-10-19T09:21:26;3.57;;;3.27;;
10166;SDS011;62970;53.130;8.244;2023-10-19T09:23:58;3.73;;;3.43;;
10166;SDS011;62970;53.130;8.244;2023-10-19T09:26:27;3.90;;;3.60;;
10166;SDS011;62970;53.130;8.244;2023-10-19T09:28:59;3.57;;;3.27;;
10166;SDS011;62970;53.130;8.244;2023-10-19T09:31:30;3.10;;;2.90;;
10166;SDS011;62970;53.130;8.244;2023-10-19T09:34:01;3.00;;;2.80;;
10166;SDS011;62970;53.130;8.244;2023-10-19T09:36:36;3.07;;;2.87;;
10166;SDS011;62970;53.130;8.244;2023-10-19T09:39:08;3.23;;;2.97;;
10166;SDS011;62970;53.130;8.244;2023-10-19T09:41:38;2.93;;;2.73;;
10166;SDS011;62970;53.130;8.244;2023-10-19T09:44:11;3.20;;;3.00;;
10166;SDS011;62970;53.130;8.244;2023-10-19T09:46:42;3.10;;;2.90;;
10166;SDS011;62970;53.130;8.244;2023-10-19T09:49:12;3.17;;;2.97;;
10166;SDS011;62970;53.130;8.244;2023-10-19T09:51:43;3.37;;;3.07;;
10166;SDS011;62970;53.130;8.244;2023-10-19T09:54:31;3.40;;;3.10;;
10166;SDS011;62970;53.130;8.244;2023-10-19T09:57:13;3.00;;;2.70;;
10166;SDS011;62970;53.130;8.244;2023-10-19T09:59:54;2.83;;;2.63;;
10166;SDS011;62970;53.130;8.244;2023-10-19T10:02:34;3.40;;;3.10;;
10166;SDS011;62970;53.130;8.244;2023-10-19T10:05:04;2.93;;;2.73;;
10166;SDS011;62970;53.130;8.244;2023-10-19T10:11:12;3.00;;;2.80;;
10166;SDS011;62970;53.130;8.244;2023-10-19T10:13:45;3.00;;;2.70;;
10166;SDS011;62970;53.130;8.244;2023-10-19T10:16:19;3.17;;;2.97;;
10166;SDS011;62970;53.130;8.244;2023-10-19T10:18:54;3.30;;;3.00;;
10166;SDS011;62970;53.130;8.244;2023-10-19T10:21:29;3.17;;;2.87;;
10166;SDS011;62970;53.130;8.244;2023-10-19T10:24:00;2.90;;;2.70;;
10166;SDS011;62970;53.130;8.244;2023-10-19T10:26:57;3.00;;;2.80;;
10166;SDS011;62970;53.130;8.244;2023-10-19T10:29:28;3.00;;;2.80;;
10166;SDS011;62970;53.130;8.244;2023-10-19T10:32:00;3.10;;;2.90;;
10166;SDS011;62970;53.130;8.244;2023-10-19T10:34:43;2.97;;;2.77;;
10166;SDS011;62970;53.130;8.244;2023-10-19T10:37:15;2.87;;;2.67;;
10166;SDS011;62970;53.130;8.244;2023-10-19T10:39:45;2.93;;;2.73;;
10166;SDS011;62970;53.130;8.244;2023-10-19T10:42:16;2.90;;;2.70;;
10166;SDS011;62970;53.130;8.244;2023-10-19T10:44:46;2.97;;;2.77;;
10166;SDS011;62970;53.130;8.244;2023-10-19T10:47:23;2.97;;;2.70;;
10166;SDS011;62970;53.130;8.244;2023-10-19T10:49:55;3.37;;;3.07;;
10166;SDS011;62970;53.130;8.244;2023-10-19T10:52:29;2.63;;;2.43;;
10166;SDS011;62970;53.130;8.244;2023-10-19T10:55:06;2.83;;;2.63;;
10166;SDS011;62970;53.130;8.244;2023-10-19T10:57:37;3.10;;;2.90;;
10166;SDS011;62970;53.130;8.244;2023-10-19T11:00:08;2.90;;;2.70;;
10166;SDS011;62970;53.130;8.244;2023-10-19T11:02:43;3.00;;;2.80;;
10166;SDS011;62970;53.130;8.244;2023-10-19T11:05:15;2.60;;;2.40;;
10166;SDS011;62970;53.130;8.244;2023-10-19T11:08:02;3.20;;;3.00;;
10166;SDS011;62970;53.130;8.244;2023-10-19T11:10:35;3.17;;;2.57;;
10166;SDS011;62970;53.130;8.244;2023-10-19T11:13:05;3.00;;;2.80;;
10166;SDS011;62970;53.130;8.244;2023-10-19T11:15:36;2.87;;;2.67;;
10166;SDS011;62970;53.130;8.244;2023-10-19T11:18:09;2.80;;;2.60;;
10166;SDS011;62970;53.130;8.244;2023-10-19T11:20:38;3.10;;;2.90;;
10166;SDS011;62970;53.130;8.244;2023-10-19T11:23:08;3.70;;;3.10;;
10166;SDS011;62970;53.130;8.244;2023-10-19T11:25:37;3.10;;;2.90;;
10166;SDS011;62970;53.130;8.244;2023-10-19T11:28:16;3.30;;;3.07;;
10166;SDS011;62970;53.130;8.244;2023-10-19T11:30:46;3.03;;;2.83;;
10166;SDS011;62970;53.130;8.244;2023-10-19T11:33:18;3.30;;;2.90;;
10166;SDS011;62970;53.130;8.244;2023-10-19T11:35:49;2.97;;;2.77;;
10166;SDS011;62970;53.130;8.244;2023-10-19T11:38:19;3.07;;;2.80;;
10166;SDS011;62970;53.130;8.244;2023-10-19T11:40:48;3.00;;;2.80;;
10166;SDS011;62970;53.130;8.244;2023-10-19T11:43:18;3.63;;;3.10;;
10166;SDS011;62970;53.130;8.244;2023-10-19T11:45:47;3.10;;;2.90;;
10166;SDS011;62970;53.130;8.244;2023-10-19T11:48:19;3.10;;;2.90;;
10166;SDS011;62970;53.130;8.244;2023-10-19T11:50:48;3.20;;;3.00;;
10166;SDS011;62970;53.130;8.244;2023-10-19T11:53:19;3.43;;;3.13;;
10166;SDS011;62970;53.130;8.244;2023-10-19T11:55:49;3.07;;;2.87;;
10166;SDS011;62970;53.130;8.244;2023-10-19T11:58:18;3.07;;;2.87;;
10166;SDS011;62970;53.130;8.244;2023-10-19T12:00:48;3.07;;;2.80;;
10166;SDS011;62970;53.130;8.244;2023-10-19T12:03:22;3.40;;;3.10;;
10166;SDS011;62970;53.130;8.244;2023-10-19T12:05:51;3.47;;;3.20;;
10166;SDS011;62970;53.130;8.244;2023-10-19T12:08:21;3.40;;;3.20;;
10166;SDS011;62970;53.130;8.244;2023-10-19T12:10:51;3.40;;;3.10;;
10166;SDS011;62970;53.130;8.244;2023-10-19T12:13:20;4.00;;;3.70;;
10166;SDS011;62970;53.130;8.244;2023-10-19T12:15:50;3.27;;;3.07;;
10166;SDS011;62970;53.130;8.244;2023-10-19T12:18:31;3.90;;;3.60;;
10166;SDS011;62970;53.130;8.244;2023-10-19T12:21:07;3.50;;;3.30;;
10166;SDS011;62970;53.130;8.244;2023-10-19T12:23:38;3.70;;;3.40;;
10166;SDS011;62970;53.130;8.244;2023-10-19T12:26:08;3.83;;;3.53;;
10166;SDS011;62970;53.130;8.244;2023-10-19T12:28:40;4.47;;;4.10;;
10166;SDS011;62970;53.130;8.244;2023-10-19T12:31:12;4.20;;;3.83;;
10166;SDS011;62970;53.130;8.244;2023-10-19T12:33:46;4.00;;;3.70;;
10166;SDS011;62970;53.130;8.244;2023-10-19T12:36:16;4.40;;;4.10;;
